臺北飛航情報區 - 掃描席(區管/近場)

METAR RCTP 211030Z 23010KT 190V250 9999 FEW012 SCT050 24/21 Q1015 NOSIG RMK A2998=

站台狀態:Online
最後更新:2024-02-21 18:30:02